createdAt,value
2023-10-20T00:00:45.337Z,94744.69
2023-10-20T00:03:12.291Z,94735.13
2023-10-20T00:05:39.279Z,94727.63
2023-10-20T00:08:06.526Z,94726.59
2023-10-20T00:10:40.919Z,94723.97
2023-10-20T00:13:08.007Z,94714.41
2023-10-20T00:15:35.977Z,94723.97
2023-10-20T00:18:04.212Z,94708.50
2023-10-20T00:20:31.121Z,94706.47
2023-10-20T00:22:58.204Z,94716.63
2023-10-20T00:25:25.059Z,94709.53
2023-10-20T00:27:51.919Z,94699.97
2023-10-20T00:30:18.739Z,94693.06
2023-10-20T00:32:46.903Z,94697.53
2023-10-20T00:35:15.351Z,94686.16
2023-10-20T00:37:43.346Z,94671.94
2023-10-20T00:40:11.665Z,94684.94
2023-10-20T00:42:38.972Z,94676.41
2023-10-20T00:45:07.018Z,94679.06
2023-10-20T00:47:36.416Z,94671.13
2023-10-20T00:50:06.055Z,94665.03
2023-10-20T00:52:37.328Z,94657.09
2023-10-20T00:55:05.042Z,94655.28
2023-10-20T00:57:32.325Z,94656.28
2023-10-20T00:59:59.136Z,94660.34
2023-10-20T01:02:26.143Z,94652.44
2023-10-20T01:04:53.172Z,94650.00
2023-10-20T01:07:20.816Z,94644.09
2023-10-20T01:09:47.598Z,94640.66
2023-10-20T01:12:14.407Z,94633.34
2023-10-20T01:14:41.754Z,94630.09
2023-10-20T01:17:11.427Z,94634.75
2023-10-20T01:19:38.733Z,94636.38
2023-10-20T01:22:05.916Z,94627.44
2023-10-20T01:24:32.993Z,94613.44
2023-10-20T01:26:59.880Z,94602.06
2023-10-20T01:29:26.790Z,94607.53
2023-10-20T01:31:53.618Z,94608.97
2023-10-20T01:34:20.571Z,94603.28
2023-10-20T01:36:47.603Z,94590.06
2023-10-20T01:39:16.925Z,94599.00
2023-10-20T01:41:43.979Z,94588.25
2023-10-20T01:44:10.826Z,94585.81
2023-10-20T01:46:37.805Z,94588.66
2023-10-20T01:49:04.741Z,94585.00
2023-10-20T01:51:31.551Z,94563.88
2023-10-20T01:53:58.577Z,94562.25
2023-10-20T01:56:25.480Z,94561.22
2023-10-20T01:58:52.308Z,94548.44
2023-10-20T02:01:20.264Z,94543.75
2023-10-20T02:03:48.671Z,94539.69
2023-10-20T02:06:15.532Z,94538.69
2023-10-20T02:08:42.286Z,94527.31
2023-10-20T02:11:10.007Z,94534.00
2023-10-20T02:13:38.369Z,94530.56
2023-10-20T02:16:07.610Z,94529.75
2023-10-20T02:18:34.516Z,94524.66
2023-10-20T02:21:05.259Z,94502.53
2023-10-20T02:23:33.097Z,94504.16
2023-10-20T02:26:01.449Z,94498.06
2023-10-20T02:28:28.624Z,94489.53
2023-10-20T02:31:00.334Z,94482.63
2023-10-20T02:33:27.263Z,94480.78
2023-10-20T02:35:55.983Z,94478.16
2023-10-20T02:38:22.802Z,94473.69
2023-10-20T02:40:51.446Z,94463.94
2023-10-20T02:43:18.352Z,94470.84
2023-10-20T02:45:53.865Z,94457.84
2023-10-20T02:48:21.679Z,94450.72
2023-10-20T02:50:48.960Z,94453.38
2023-10-20T02:53:16.493Z,94443.22
2023-10-20T02:55:44.486Z,94429.81
2023-10-20T02:58:12.027Z,94422.09
2023-10-20T03:00:46.632Z,94411.53
2023-10-20T03:03:15.333Z,94411.13
2023-10-20T03:05:46.996Z,94412.75
2023-10-20T03:08:14.372Z,94411.94
2023-10-20T03:10:41.178Z,94421.91
2023-10-20T03:13:08.039Z,94413.19
2023-10-20T03:15:35.010Z,94411.34
2023-10-20T03:18:02.011Z,94412.38
2023-10-20T03:20:32.086Z,94416.63
2023-10-20T03:22:59.842Z,94413.56
2023-10-20T03:25:28.205Z,94406.66
2023-10-20T03:27:54.965Z,94407.09
2023-10-20T03:30:21.790Z,94408.13
2023-10-20T03:32:51.889Z,94395.50
2023-10-20T03:35:19.245Z,94401.00
2023-10-20T03:37:46.226Z,94401.00
2023-10-20T03:40:17.940Z,94395.94
2023-10-20T03:42:44.873Z,94375.63
2023-10-20T03:45:12.245Z,94362.41
2023-10-20T03:47:42.239Z,94364.63
2023-10-20T03:50:17.091Z,94352.66
2023-10-20T03:52:48.234Z,94348.19
2023-10-20T03:55:15.446Z,94341.28
2023-10-20T03:57:46.029Z,94338.88
2023-10-20T04:00:35.320Z,94336.00
2023-10-20T04:03:02.178Z,94337.66
2023-10-20T04:05:29.243Z,94331.16
2023-10-20T04:07:56.061Z,94330.56
2023-10-20T04:10:22.950Z,94325.28
2023-10-20T04:12:50.043Z,94312.28
2023-10-20T04:15:17.393Z,94308.41
2023-10-20T04:17:53.420Z,94314.94
2023-10-20T04:20:21.535Z,94303.78
2023-10-20T04:22:52.311Z,94304.38
2023-10-20T04:25:23.430Z,94297.06
2023-10-20T04:27:52.521Z,94279.59
2023-10-20T04:30:38.746Z,94278.78
2023-10-20T04:33:25.421Z,94257.44
2023-10-20T04:36:11.484Z,94259.69
2023-10-20T04:38:56.838Z,94245.06
2023-10-20T04:41:43.050Z,94235.53
2023-10-20T04:44:16.304Z,94210.16
2023-10-20T04:47:07.173Z,94181.53
2023-10-20T04:49:59.783Z,94180.28
2023-10-20T04:52:44.777Z,94165.06
2023-10-20T04:55:11.576Z,94163.28
2023-10-20T04:57:41.501Z,94169.94
2023-10-20T05:00:11.777Z,94166.28
2023-10-20T05:02:58.893Z,94156.75
2023-10-20T05:05:26.545Z,94154.53
2023-10-20T05:07:54.369Z,94172.00
2023-10-20T05:10:22.091Z,94164.06
2023-10-20T05:12:49.394Z,94152.50
2023-10-20T05:15:16.494Z,94145.97
2023-10-20T05:17:43.343Z,94135.41
2023-10-20T05:20:14.647Z,94133.00
2023-10-20T05:22:42.776Z,94132.19
2023-10-20T05:25:10.941Z,94126.91
2023-10-20T05:27:37.728Z,94123.69
2023-10-20T05:30:05.560Z,94107.84
2023-10-20T05:32:33.149Z,94106.22
2023-10-20T05:35:00.466Z,94103.81
2023-10-20T05:37:27.949Z,94100.13
2023-10-20T05:39:54.783Z,94094.63
2023-10-20T05:42:21.559Z,94108.66
2023-10-20T05:45:04.864Z,94092.00
2023-10-20T05:47:32.208Z,94103.00
2023-10-20T05:50:00.710Z,94097.72
2023-10-20T05:52:27.611Z,94090.38
2023-10-20T05:54:57.246Z,94087.75
2023-10-20T05:57:24.320Z,94091.41
2023-10-20T05:59:51.864Z,94075.34
2023-10-20T06:02:19.465Z,94077.78
2023-10-20T06:04:46.243Z,94090.38
2023-10-20T06:07:13.016Z,94092.81
2023-10-20T06:09:40.923Z,94087.31
2023-10-20T06:12:08.926Z,94085.69
2023-10-20T06:14:37.667Z,94083.06
2023-10-20T06:17:04.741Z,94064.59
2023-10-20T06:19:32.911Z,94068.63
2023-10-20T06:22:01.701Z,94067.59
2023-10-20T06:24:29.374Z,94067.81
2023-10-20T06:27:04.131Z,94051.16
2023-10-20T06:29:34.740Z,94051.97
2023-10-20T06:32:07.549Z,94025.78
2023-10-20T06:34:41.996Z,94008.13
2023-10-20T06:37:15.721Z,93998.16
2023-10-20T06:39:43.005Z,93994.28
2023-10-20T06:42:10.907Z,93987.59
2023-10-20T06:44:37.745Z,93986.34
2023-10-20T06:47:04.869Z,93979.25
2023-10-20T06:49:33.766Z,93969.25
2023-10-20T06:52:05.375Z,93964.78
2023-10-20T06:54:32.501Z,93952.63
2023-10-20T06:57:00.778Z,93946.91
2023-10-20T06:59:27.713Z,93936.34
2023-10-20T07:02:01.540Z,93918.88
2023-10-20T07:04:29.016Z,93912.81
2023-10-20T07:06:58.326Z,93915.31
2023-10-20T07:09:25.691Z,93914.84
2023-10-20T07:11:53.666Z,93901.66
2023-10-20T07:14:20.563Z,93900.09
2023-10-20T07:16:47.506Z,93888.22
2023-10-20T07:19:14.574Z,93871.91
2023-10-20T07:21:41.701Z,93863.19
2023-10-20T07:24:09.262Z,93863.50
2023-10-20T07:26:36.298Z,93850.53
2023-10-20T07:29:03.730Z,93861.75
2023-10-20T07:31:30.669Z,93853.84
2023-10-20T07:33:57.631Z,93853.84
2023-10-20T07:36:24.404Z,93844.88
2023-10-20T07:38:51.409Z,93835.13
2023-10-20T07:41:18.677Z,93838.34
2023-10-20T07:43:45.585Z,93811.72
2023-10-20T07:46:18.641Z,93806.22
2023-10-20T07:48:46.395Z,93824.13
2023-10-20T07:51:13.306Z,93824.13
2023-10-20T07:53:40.280Z,93824.94
2023-10-20T07:56:07.112Z,93823.31
2023-10-20T07:58:34.535Z,93827.78
2023-10-20T08:01:02.189Z,93822.06
2023-10-20T08:03:29.636Z,93825.16
2023-10-20T08:05:57.013Z,93813.78
2023-10-20T08:08:24.324Z,93814.81
2023-10-20T08:10:53.428Z,93802.41
2023-10-20T08:13:20.434Z,93795.31
2023-10-20T08:15:47.262Z,93796.91
2023-10-20T08:18:14.363Z,93807.03
2023-10-20T08:20:41.221Z,93795.22
2023-10-20T08:23:08.192Z,93811.06
2023-10-20T08:25:38.419Z,93811.06
2023-10-20T08:28:06.332Z,93829.53
2023-10-20T08:30:33.213Z,93808.19
2023-10-20T08:33:00.849Z,93811.41
2023-10-20T08:35:27.885Z,93823.13
2023-10-20T08:37:54.775Z,93827.59
2023-10-20T08:40:21.608Z,93822.31
2023-10-20T08:42:50.012Z,93831.28
2023-10-20T08:45:17.279Z,93804.41
2023-10-20T08:47:44.634Z,93823.13
2023-10-20T08:50:13.289Z,93831.63
2023-10-20T08:52:41.054Z,93839.56
2023-10-20T08:55:09.088Z,93828.75
2023-10-20T08:57:35.890Z,93841.16
2023-10-20T09:00:02.860Z,93833.25
2023-10-20T09:02:39.923Z,93845.41
2023-10-20T09:05:08.365Z,93837.28
2023-10-20T09:07:35.613Z,93832.78
2023-10-20T09:10:03.956Z,93836.47
2023-10-20T09:12:33.000Z,93838.44
2023-10-20T09:14:59.871Z,93851.63
2023-10-20T09:17:27.266Z,93823.38
2023-10-20T09:20:05.906Z,93819.13
2023-10-20T09:22:32.649Z,93803.06
2023-10-20T09:24:59.745Z,93811.56
2023-10-20T09:27:27.084Z,93805.47
2023-10-20T09:29:56.260Z,93776.41
2023-10-20T09:32:23.213Z,93799.75
2023-10-20T09:34:52.009Z,93794.22
2023-10-20T09:37:24.645Z,93806.19
2023-10-20T09:39:55.821Z,93791.50
2023-10-20T09:42:25.943Z,93793.09
2023-10-20T09:45:07.683Z,93776.44
2023-10-20T09:47:38.134Z,93780.13
2023-10-20T09:50:06.903Z,93770.34
2023-10-20T09:52:34.597Z,93786.78
2023-10-20T09:55:02.889Z,93763.22
2023-10-20T09:57:30.179Z,93765.66
2023-10-20T09:59:57.003Z,93760.94
2023-10-20T10:02:31.286Z,93774.50
2023-10-20T10:04:59.219Z,93776.34
2023-10-20T10:07:35.428Z,93788.25
2023-10-20T10:10:05.057Z,93801.25
2023-10-20T10:12:34.442Z,93802.28
2023-10-20T10:15:15.562Z,93828.00
2023-10-20T10:17:53.264Z,93830.66
2023-10-20T10:20:29.421Z,93837.56
2023-10-20T10:23:12.396Z,93839.97
2023-10-20T10:25:41.507Z,93841.56
2023-10-20T10:28:14.933Z,93840.31
2023-10-20T10:30:43.141Z,93840.31
2023-10-20T10:33:12.477Z,93847.44
2023-10-20T10:35:40.817Z,93854.91
2023-10-20T10:38:22.457Z,93848.59
2023-10-20T10:40:56.505Z,93860.56
2023-10-20T10:43:23.505Z,93876.75
2023-10-20T10:45:54.759Z,93883.88
2023-10-20T10:48:25.971Z,93915.38
2023-10-20T10:50:52.910Z,93946.66
2023-10-20T10:53:19.741Z,93946.41
2023-10-20T10:55:46.753Z,93937.25
2023-10-20T10:58:15.237Z,93981.16
2023-10-20T11:00:46.868Z,93956.34
2023-10-20T11:03:17.312Z,93975.44
2023-10-20T11:05:44.634Z,93993.72
2023-10-20T11:08:13.991Z,94004.06
2023-10-20T11:10:47.487Z,93954.06
2023-10-20T11:13:17.662Z,93958.91
2023-10-20T11:15:48.024Z,93960.72
2023-10-20T11:18:14.969Z,93950.16
2023-10-20T11:20:43.459Z,93959.69
2023-10-20T11:23:12.609Z,93949.69
2023-10-20T11:25:42.057Z,93942.34
2023-10-20T11:28:09.302Z,93967.53
2023-10-20T11:30:40.455Z,93996.16
2023-10-20T11:33:07.556Z,93991.69
2023-10-20T11:35:34.753Z,93973.75
2023-10-20T11:38:02.372Z,93976.97
2023-10-20T11:40:30.121Z,94004.00
2023-10-20T11:42:57.593Z,94020.91
2023-10-20T11:45:24.939Z,94023.31
2023-10-20T11:47:52.977Z,94021.50
2023-10-20T11:50:20.872Z,94011.72
2023-10-20T11:52:48.713Z,94013.09
2023-10-20T11:55:15.570Z,94003.91
2023-10-20T11:57:42.887Z,94017.34
2023-10-20T12:00:11.352Z,94007.94
2023-10-20T12:02:39.842Z,93995.28
2023-10-20T12:05:07.752Z,94019.91
2023-10-20T12:07:34.896Z,94006.00
2023-10-20T12:10:08.411Z,94004.47
2023-10-20T12:12:40.286Z,94021.16
2023-10-20T12:15:09.179Z,94032.91
2023-10-20T12:17:36.574Z,94037.38
2023-10-20T12:20:04.176Z,94033.72
2023-10-20T12:22:30.922Z,94050.16
2023-10-20T12:24:57.718Z,94040.16
2023-10-20T12:27:24.673Z,94053.63
2023-10-20T12:29:51.425Z,94057.66
2023-10-20T12:32:18.676Z,94062.94
2023-10-20T12:34:45.921Z,94087.34
2023-10-20T12:37:12.745Z,94086.31
2023-10-20T12:39:41.666Z,94083.44
2023-10-20T12:42:09.006Z,94094.81
2023-10-20T12:44:36.528Z,94081.59
2023-10-20T12:47:04.125Z,94095.41
2023-10-20T12:49:33.111Z,94108.41
2023-10-20T12:52:03.568Z,94112.44
2023-10-20T12:54:30.650Z,94115.31
2023-10-20T12:57:00.192Z,94113.47
2023-10-20T12:59:27.328Z,94101.84
2023-10-20T13:01:54.544Z,94107.97
2023-10-20T13:04:21.661Z,94106.69
2023-10-20T13:06:59.941Z,94133.16
2023-10-20T13:09:27.970Z,94148.25
2023-10-20T13:11:54.899Z,94145.94
2023-10-20T13:14:21.811Z,94141.25
2023-10-20T13:16:48.752Z,94152.63
2023-10-20T13:19:16.787Z,94149.19
2023-10-20T13:21:44.316Z,94160.13
2023-10-20T13:24:11.388Z,94146.09
2023-10-20T13:26:38.900Z,94150.56
2023-10-20T13:29:05.991Z,94143.44
2023-10-20T13:31:35.351Z,94144.00
2023-10-20T13:34:03.899Z,94147.47
2023-10-20T13:36:30.872Z,94140.09
2023-10-20T13:38:57.730Z,94131.13
2023-10-20T13:41:27.394Z,94145.97
2023-10-20T13:43:54.169Z,94153.94
2023-10-20T13:46:20.996Z,94164.28
2023-10-20T13:48:48.674Z,94174.66
2023-10-20T13:51:16.129Z,94174.88
2023-10-20T13:53:43.356Z,94175.47
2023-10-20T13:56:10.338Z,94166.72
2023-10-20T13:58:37.153Z,94174.44
2023-10-20T14:01:04.255Z,94169.13
2023-10-20T14:03:31.345Z,94190.31
2023-10-20T14:05:58.677Z,94189.88
2023-10-20T14:08:26.062Z,94194.34
2023-10-20T14:10:54.838Z,94189.88
2023-10-20T14:13:22.088Z,94178.25
2023-10-20T14:15:50.990Z,94181.69
2023-10-20T14:20:45.051Z,94193.44
2023-10-20T14:23:11.946Z,94204.84
2023-10-20T14:25:38.704Z,94220.72
2023-10-20T14:28:07.170Z,94218.09
2023-10-20T14:30:34.344Z,94222.34
2023-10-20T14:33:01.427Z,94217.06
2023-10-20T14:35:28.493Z,94224.19
2023-10-20T14:37:57.480Z,94234.59
2023-10-20T14:40:24.412Z,94233.97
2023-10-20T14:42:51.307Z,94227.66
2023-10-20T14:45:18.482Z,94224.81
2023-10-20T14:47:45.427Z,94244.97
2023-10-20T14:50:12.399Z,94252.91
2023-10-20T14:52:41.411Z,94247.59
2023-10-20T14:55:10.705Z,94228.03
2023-10-20T14:57:37.813Z,94228.84
2023-10-20T15:00:11.530Z,94240.25
2023-10-20T15:02:40.184Z,94251.66
2023-10-20T15:05:08.018Z,94253.25
2023-10-20T15:07:38.043Z,94262.00
2023-10-20T15:10:05.526Z,94282.97
2023-10-20T15:12:32.919Z,94283.78
2023-10-20T15:15:01.100Z,94296.00
2023-10-20T15:17:28.210Z,94280.09
2023-10-20T15:19:55.418Z,94285.41
2023-10-20T15:22:22.412Z,94287.81
2023-10-20T15:24:50.106Z,94301.06
2023-10-20T15:27:19.646Z,94283.91
2023-10-20T15:29:47.822Z,94287.72
2023-10-20T15:32:16.809Z,94295.91
2023-10-20T15:34:43.737Z,94303.25
2023-10-20T15:37:10.625Z,94316.28
2023-10-20T15:39:49.275Z,94332.97
2023-10-20T15:42:25.050Z,94345.19
2023-10-20T15:44:52.088Z,94349.44
2023-10-20T15:47:19.047Z,94350.50
2023-10-20T15:49:45.948Z,94350.50
2023-10-20T15:52:13.266Z,94356.81
2023-10-20T15:54:40.198Z,94382.28
2023-10-20T15:57:07.482Z,94384.94
2023-10-20T15:59:34.577Z,94392.88
2023-10-20T16:02:01.730Z,94404.28
2023-10-20T16:04:28.706Z,94403.47
2023-10-20T16:06:55.604Z,94419.38
2023-10-20T16:09:22.449Z,94418.31
2023-10-20T16:11:49.441Z,94423.59
2023-10-20T16:14:16.598Z,94438.72
2023-10-20T16:16:43.478Z,94447.44
2023-10-20T16:19:11.837Z,94455.38
2023-10-20T16:21:39.002Z,94459.91
2023-10-20T16:24:06.711Z,94448.50
2023-10-20T16:26:33.803Z,94441.38
2023-10-20T16:29:00.647Z,94454.34
2023-10-20T16:31:27.576Z,94453.56
2023-10-20T16:33:54.801Z,94457.00
2023-10-20T16:36:21.970Z,94461.50
2023-10-20T16:38:48.834Z,94469.44
2023-10-20T16:41:15.723Z,94472.09
2023-10-20T16:43:42.559Z,94473.94
2023-10-20T16:46:09.404Z,94490.88
2023-10-20T16:48:36.358Z,94493.53
2023-10-20T16:51:03.415Z,94498.81
2023-10-20T16:53:30.432Z,94515.53
2023-10-20T16:56:00.916Z,94515.53
2023-10-20T16:58:28.642Z,94526.91
2023-10-20T17:01:05.792Z,94534.06
2023-10-20T17:03:34.805Z,94538.56
2023-10-20T17:06:06.139Z,94542.81
2023-10-20T17:08:33.544Z,94548.09
2023-10-20T17:11:06.513Z,94544.66
2023-10-20T17:13:33.704Z,94538.31
2023-10-20T17:16:08.256Z,94541.78
2023-10-20T17:18:35.505Z,94537.28
2023-10-20T17:21:09.972Z,94556.63
2023-10-20T17:23:37.764Z,94557.66
2023-10-20T17:26:06.576Z,94570.09
2023-10-20T17:28:34.192Z,94568.25
2023-10-20T17:31:03.945Z,94579.44
2023-10-20T17:33:31.432Z,94574.16
2023-10-20T17:36:14.136Z,94587.41
2023-10-20T17:38:41.314Z,94581.88
2023-10-20T17:41:09.136Z,94568.03
2023-10-20T17:43:37.578Z,94583.72
2023-10-20T17:46:06.033Z,94592.47
2023-10-20T17:48:33.598Z,94588.81
2023-10-20T17:51:01.649Z,94605.50
2023-10-20T17:53:29.086Z,94624.50
2023-10-20T17:55:55.880Z,94626.31
2023-10-20T17:58:23.044Z,94644.28
2023-10-20T18:00:51.974Z,94660.16
2023-10-20T18:03:19.768Z,94657.31
2023-10-20T18:05:47.426Z,94651.19
2023-10-20T18:08:15.590Z,94657.31
2023-10-20T18:10:42.849Z,94666.06
2023-10-20T18:13:09.773Z,94673.19
2023-10-20T18:15:37.641Z,94668.94
2023-10-20T18:18:05.307Z,94672.38
2023-10-20T18:20:32.245Z,94674.22
2023-10-20T18:23:00.190Z,94671.56
2023-10-20T18:25:28.912Z,94662.00
2023-10-20T18:27:55.902Z,94669.97
2023-10-20T18:30:22.963Z,94677.13
2023-10-20T18:32:51.283Z,94671.00
2023-10-20T18:35:18.157Z,94681.59
2023-10-20T18:37:44.992Z,94678.16
2023-10-20T18:40:12.037Z,94670.19
2023-10-20T18:42:39.925Z,94674.69
2023-10-20T18:45:07.166Z,94678.38
2023-10-20T18:47:34.042Z,94690.59
2023-10-20T18:50:01.273Z,94694.84
2023-10-20T18:52:28.338Z,94692.63
2023-10-20T18:54:55.175Z,94676.75
2023-10-20T18:57:21.960Z,94684.69
2023-10-20T18:59:48.791Z,94688.34
2023-10-20T19:02:15.651Z,94678.56
2023-10-20T19:04:42.438Z,94676.16
2023-10-20T19:07:11.432Z,94666.56
2023-10-20T19:09:42.006Z,94675.94
2023-10-20T19:12:10.192Z,94684.09
2023-10-20T19:14:36.977Z,94681.44
2023-10-20T19:17:03.930Z,94687.97
2023-10-20T19:19:30.686Z,94701.00
2023-10-20T19:21:57.462Z,94721.38
2023-10-20T19:24:25.299Z,94731.78
2023-10-20T19:26:52.560Z,94729.34
2023-10-20T19:29:22.129Z,94719.75
2023-10-20T19:31:49.053Z,94712.84
2023-10-20T19:34:15.976Z,94714.47
2023-10-20T19:36:42.793Z,94709.38
2023-10-20T19:39:10.768Z,94705.13
2023-10-20T19:41:38.500Z,94712.47
2023-10-20T19:44:05.373Z,94703.50
2023-10-20T19:46:32.425Z,94713.47
2023-10-20T19:49:00.184Z,94722.44
2023-10-20T19:51:27.288Z,94722.44
2023-10-20T19:53:54.148Z,94714.50
2023-10-20T19:56:21.006Z,94710.25
2023-10-20T19:58:47.797Z,94713.91
2023-10-20T20:01:14.912Z,94713.06
2023-10-20T20:03:43.086Z,94719.22
2023-10-20T20:06:13.716Z,94731.00
2023-10-20T20:08:41.541Z,94739.16
2023-10-20T20:11:09.131Z,94739.16
2023-10-20T20:13:36.220Z,94740.19
2023-10-20T20:16:06.414Z,94744.66
2023-10-20T20:18:33.967Z,94749.75
2023-10-20T20:21:01.016Z,94739.59
2023-10-20T20:23:27.863Z,94742.25
2023-10-20T20:25:54.601Z,94739.00
2023-10-20T20:28:21.368Z,94742.44
2023-10-20T20:30:48.181Z,94750.41
2023-10-20T20:33:15.302Z,94750.41
2023-10-20T20:35:42.322Z,94750.81
2023-10-20T20:38:09.330Z,94736.75
2023-10-20T20:40:38.192Z,94741.03
2023-10-20T20:43:05.778Z,94745.53
2023-10-20T20:45:35.828Z,94733.31
2023-10-20T20:48:05.837Z,94714.97
2023-10-20T20:50:33.901Z,94716.00
2023-10-20T20:53:04.228Z,94716.00
2023-10-20T20:55:35.588Z,94720.28
2023-10-20T20:58:02.504Z,94716.00
2023-10-20T21:00:29.386Z,94714.97
2023-10-20T21:02:56.599Z,94706.44
2023-10-20T21:05:23.669Z,94701.16
2023-10-20T21:07:50.554Z,94714.38
2023-10-20T21:10:18.232Z,94708.06
2023-10-20T21:12:45.039Z,94706.44
2023-10-20T21:15:14.135Z,94713.78
2023-10-20T21:17:41.131Z,94711.13
2023-10-20T21:20:08.446Z,94684.44
2023-10-20T21:22:35.229Z,94707.88
2023-10-20T21:25:02.410Z,94706.06
2023-10-20T21:27:29.518Z,94712.97
2023-10-20T21:29:56.334Z,94721.94
2023-10-20T21:32:23.245Z,94726.41
2023-10-20T21:34:50.417Z,94730.91
2023-10-20T21:37:18.931Z,94724.59
2023-10-20T21:39:46.089Z,94720.53
2023-10-20T21:42:12.895Z,94734.19
2023-10-20T21:44:39.718Z,94754.94
2023-10-20T21:47:07.384Z,94760.44
2023-10-20T21:49:34.572Z,94760.66
2023-10-20T21:52:02.129Z,94759.63
2023-10-20T21:54:28.922Z,94763.50
2023-10-20T21:56:55.780Z,94764.31
2023-10-20T21:59:23.201Z,94763.50
2023-10-20T22:02:08.389Z,94767.19
2023-10-20T22:04:36.308Z,94775.94
2023-10-20T22:07:03.281Z,94771.66
2023-10-20T22:09:38.397Z,94773.50
2023-10-20T22:12:13.031Z,94773.72
2023-10-20T22:14:39.880Z,94769.66
2023-10-20T22:17:06.772Z,94767.59
2023-10-20T22:19:33.789Z,94771.06
2023-10-20T22:22:00.722Z,94775.13
2023-10-20T22:24:27.510Z,94777.56
2023-10-20T22:26:54.276Z,94783.88
2023-10-20T22:29:21.495Z,94787.56
2023-10-20T22:31:49.628Z,94798.13
2023-10-20T22:34:16.418Z,94794.88
2023-10-20T22:36:43.232Z,94794.06
2023-10-20T22:39:10.091Z,94800.19
2023-10-20T22:41:37.024Z,94794.28
2023-10-20T22:44:04.043Z,94811.19
2023-10-20T22:46:30.867Z,94810.38
2023-10-20T22:48:57.684Z,94810.59
2023-10-20T22:51:24.507Z,94820.16
2023-10-20T22:53:51.309Z,94827.47
2023-10-20T22:56:18.156Z,94833.59
2023-10-20T22:58:45.071Z,94839.91
2023-10-20T23:01:11.914Z,94833.00
2023-10-20T23:03:38.891Z,94830.34
2023-10-20T23:06:05.881Z,94827.91
2023-10-20T23:08:33.218Z,94830.75
2023-10-20T23:11:00.182Z,94832.59
2023-10-20T23:13:26.951Z,94836.25
2023-10-20T23:15:53.768Z,94851.31
2023-10-20T23:18:20.652Z,94854.19
2023-10-20T23:20:47.633Z,94849.91
2023-10-20T23:23:14.733Z,94860.50
2023-10-20T23:25:41.468Z,94865.78
2023-10-20T23:28:08.308Z,94866.81
2023-10-20T23:30:35.492Z,94874.53
2023-10-20T23:33:02.422Z,94877.38
2023-10-20T23:35:29.293Z,94875.56
2023-10-20T23:37:56.079Z,94880.84
2023-10-20T23:40:23.057Z,94874.75
2023-10-20T23:42:49.915Z,94874.13
2023-10-20T23:45:16.798Z,94885.75
2023-10-20T23:47:43.741Z,94877.59
2023-10-20T23:50:10.689Z,94875.97
2023-10-20T23:52:37.512Z,94875.97
2023-10-20T23:55:07.443Z,94880.44
2023-10-20T23:57:34.293Z,94884.94
